createdAt,value
2023-05-13T00:03:45.061Z,1013.9
2023-05-13T00:09:51.559Z,1014
2023-05-13T00:15:57.361Z,1014
2023-05-13T00:22:03.233Z,1014
2023-05-13T00:28:08.504Z,1014.1
2023-05-13T00:34:14.548Z,1014.1
2023-05-13T00:40:19.858Z,1014.1
2023-05-13T00:46:26.158Z,1014.1
2023-05-13T00:52:32.426Z,1014.1
2023-05-13T00:58:37.852Z,1014.1
2023-05-13T01:04:43.631Z,1014.1
2023-05-13T01:10:49.345Z,1014
2023-05-13T01:16:55.029Z,1014.1
2023-05-13T01:23:00.916Z,1014.1
2023-05-13T01:29:06.896Z,1014.1
2023-05-13T01:35:12.699Z,1014.1
2023-05-13T01:41:18.242Z,1014.1
2023-05-13T01:47:24.846Z,1014.1
2023-05-13T01:53:30.216Z,1014.1
2023-05-13T01:59:35.973Z,1014.2
2023-05-13T02:05:41.551Z,1014.1
2023-05-13T02:11:47.528Z,1014.1
2023-05-13T02:17:53.149Z,1014.1
2023-05-13T02:23:58.944Z,1014.1
2023-05-13T02:30:04.051Z,1014.2
2023-05-13T02:36:09.864Z,1014.1
2023-05-13T02:42:15.087Z,1014.1
2023-05-13T02:48:20.849Z,1014.1
2023-05-13T02:54:26.131Z,1014.1
2023-05-13T03:00:31.967Z,1014.1
2023-05-13T03:06:37.495Z,1014.1
2023-05-13T03:12:43.339Z,1014.1
2023-05-13T03:18:49.134Z,1014.1
2023-05-13T03:24:54.871Z,1014.1
2023-05-13T03:31:00.821Z,1014.2
2023-05-13T03:37:06.022Z,1014.2
2023-05-13T03:43:12.154Z,1014.2
2023-05-13T03:49:17.394Z,1014.3
2023-05-13T03:55:23.314Z,1014.3
2023-05-13T04:01:28.527Z,1014.3
2023-05-13T04:07:34.248Z,1014.4
2023-05-13T04:13:39.653Z,1014.4
2023-05-13T04:19:45.587Z,1014.5
2023-05-13T04:25:50.753Z,1014.5
2023-05-13T04:31:56.172Z,1014.6
2023-05-13T04:38:01.562Z,1014.6
2023-05-13T04:44:06.864Z,1014.6
2023-05-13T04:50:13.307Z,1014.7
2023-05-13T04:56:19.653Z,1014.7
2023-05-13T05:02:25.432Z,1014.7
2023-05-13T05:08:31.192Z,1014.8
2023-05-13T05:14:36.024Z,1014.8
2023-05-13T05:20:41.736Z,1014.8
2023-05-13T05:26:47.201Z,1014.9
2023-05-13T05:32:53.532Z,1014.9
2023-05-13T05:38:58.726Z,1015
2023-05-13T05:45:05.067Z,1014.9
2023-05-13T05:51:10.459Z,1015
2023-05-13T05:57:16.003Z,1015
2023-05-13T06:03:22.873Z,1015
2023-05-13T06:09:29.067Z,1015
2023-05-13T06:15:34.153Z,1015
2023-05-13T06:21:39.910Z,1015.1
2023-05-13T06:27:45.157Z,1015.1
2023-05-13T06:33:51.300Z,1015.1
2023-05-13T06:39:56.926Z,1015.1
2023-05-13T06:46:02.829Z,1015.1
2023-05-13T06:52:08.457Z,1015.1
2023-05-13T06:58:13.838Z,1015.1
2023-05-13T07:04:19.670Z,1015.2
2023-05-13T07:10:25.948Z,1015.2
2023-05-13T07:16:31.560Z,1015.2
2023-05-13T07:22:37.079Z,1015.3
2023-05-13T07:28:42.897Z,1015.3
2023-05-13T07:34:48.628Z,1015.4
2023-05-13T07:40:54.203Z,1015.4
2023-05-13T07:46:59.675Z,1015.4
2023-05-13T07:53:05.552Z,1015.4
2023-05-13T07:59:11.120Z,1015.4
2023-05-13T08:05:16.532Z,1015.5
2023-05-13T08:11:23.092Z,1015.5
2023-05-13T08:17:27.698Z,1015.5
2023-05-13T08:23:46.294Z,1015.5
2023-05-13T08:29:52.707Z,1015.6
2023-05-13T08:35:58.282Z,1015.5
2023-05-13T08:42:03.868Z,1015.6
2023-05-13T08:48:09.951Z,1015.5
2023-05-13T08:54:16.027Z,1015.6
2023-05-13T09:00:23.762Z,1015.6
2023-05-13T09:06:29.913Z,1015.6
2023-05-13T09:12:35.398Z,1015.6
2023-05-13T09:18:41.219Z,1015.7
2023-05-13T09:24:47.644Z,1015.7
2023-05-13T09:30:53.361Z,1015.7
2023-05-13T09:36:59.119Z,1015.7
2023-05-13T09:43:05.161Z,1015.7
2023-05-13T09:49:10.705Z,1015.7
2023-05-13T09:55:16.534Z,1015.7
2023-05-13T10:01:22.264Z,1015.7
2023-05-13T10:07:28.017Z,1015.7
2023-05-13T10:13:33.454Z,1015.7
2023-05-13T10:19:39.982Z,1015.8
2023-05-13T10:25:44.944Z,1015.7
2023-05-13T10:31:50.975Z,1015.7
2023-05-13T10:37:57.179Z,1015.7
2023-05-13T10:44:02.080Z,1015.8
2023-05-13T10:50:07.490Z,1015.8
2023-05-13T10:56:12.480Z,1015.8
2023-05-13T11:02:18.181Z,1015.9
2023-05-13T11:08:24.414Z,1015.9
2023-05-13T11:14:30.777Z,1015.8
2023-05-13T11:20:53.243Z,1015.9
2023-05-13T11:26:59.365Z,1015.9
2023-05-13T11:33:04.698Z,1015.9
2023-05-13T11:39:11.050Z,1016
2023-05-13T11:45:16.118Z,1016
2023-05-13T11:51:21.658Z,1015.9
2023-05-13T11:57:27.232Z,1016
2023-05-13T12:03:33.406Z,1016.1
2023-05-13T12:09:38.983Z,1016
2023-05-13T12:15:44.704Z,1016.1
2023-05-13T12:21:50.746Z,1016.1
2023-05-13T12:27:55.727Z,1016
2023-05-13T12:34:01.435Z,1016
2023-05-13T12:40:07.509Z,1016
2023-05-13T12:46:13.549Z,1016
2023-05-13T12:52:18.803Z,1016
2023-05-13T12:58:23.935Z,1016
2023-05-13T13:04:29.745Z,1016.1
2023-05-13T13:10:35.142Z,1016.1
2023-05-13T13:16:40.921Z,1016.2
2023-05-13T13:22:47.293Z,1016.2
2023-05-13T13:28:53.427Z,1016.2
2023-05-13T13:34:59.666Z,1016.1
2023-05-13T13:41:05.808Z,1016.1
2023-05-13T13:47:11.217Z,1016
2023-05-13T13:53:16.579Z,1015.9
2023-05-13T13:59:22.706Z,1015.9
2023-05-13T14:05:27.530Z,1015.9
2023-05-13T14:11:32.445Z,1015.8
2023-05-13T14:17:38.839Z,1015.8
2023-05-13T14:23:44.602Z,1015.7
2023-05-13T14:29:49.794Z,1015.7
2023-05-13T14:35:55.194Z,1015.6
2023-05-13T14:42:00.808Z,1015.6
2023-05-13T14:48:06.310Z,1015.7
2023-05-13T14:54:12.112Z,1015.7
2023-05-13T15:00:17.504Z,1015.6
2023-05-13T15:06:22.804Z,1015.5
2023-05-13T15:12:28.570Z,1015.5
2023-05-13T15:18:34.227Z,1015.5
2023-05-13T15:24:40.342Z,1015.5
2023-05-13T15:30:45.827Z,1015.4
2023-05-13T15:36:52.694Z,1015.4
2023-05-13T15:42:58.970Z,1015.4
2023-05-13T15:49:05.115Z,1015.4
2023-05-13T15:55:11.291Z,1015.4
2023-05-13T16:01:17.090Z,1015.3
2023-05-13T16:07:22.809Z,1015.2
2023-05-13T16:13:28.709Z,1015.1
2023-05-13T16:19:34.473Z,1015.2
2023-05-13T16:25:40.360Z,1015.2
2023-05-13T16:31:45.636Z,1015.2
2023-05-13T16:37:51.516Z,1015.2
2023-05-13T16:43:56.973Z,1015.1
2023-05-13T16:50:02.446Z,1015.1
2023-05-13T16:56:08.227Z,1015
2023-05-13T17:02:13.566Z,1015.1
2023-05-13T17:08:19.805Z,1015.1
2023-05-13T17:14:25.560Z,1015
2023-05-13T17:20:30.915Z,1015
2023-05-13T17:26:39.151Z,1015.1
2023-05-13T17:32:45.393Z,1015.1
2023-05-13T17:38:50.988Z,1015
2023-05-13T17:44:57.350Z,1015
2023-05-13T17:51:02.749Z,1015.1
2023-05-13T17:57:08.467Z,1015.1
2023-05-13T18:03:14.851Z,1015.1
2023-05-13T18:09:20.213Z,1015.2
2023-05-13T18:15:26.456Z,1015.2
2023-05-13T18:21:32.684Z,1015.2
2023-05-13T18:27:38.383Z,1015.2
2023-05-13T18:33:44.365Z,1015.2
2023-05-13T18:39:49.358Z,1015.3
2023-05-13T18:45:58.249Z,1015.3
2023-05-13T18:52:04.204Z,1015.3
2023-05-13T18:58:09.965Z,1015.3
2023-05-13T19:04:16.277Z,1015.3
2023-05-13T19:10:22.508Z,1015.3
2023-05-13T19:16:28.981Z,1015.4
2023-05-13T19:22:34.282Z,1015.5
2023-05-13T19:28:40.200Z,1015.5
2023-05-13T19:34:45.640Z,1015.6
2023-05-13T19:40:51.412Z,1015.7
2023-05-13T19:46:57.312Z,1015.7
2023-05-13T19:53:02.604Z,1015.8
2023-05-13T19:59:08.160Z,1015.7
2023-05-13T20:05:13.896Z,1015.6
2023-05-13T20:11:20.101Z,1015.6
2023-05-13T20:17:26.168Z,1015.6
2023-05-13T20:23:32.248Z,1015.6
2023-05-13T20:29:37.272Z,1015.6
2023-05-13T20:35:42.792Z,1015.5
2023-05-13T20:41:48.945Z,1015.5
2023-05-13T20:47:54.195Z,1015.5
2023-05-13T20:53:59.922Z,1015.4
2023-05-13T21:00:05.552Z,1015.4
2023-05-13T21:06:11.042Z,1015.4
2023-05-13T21:12:17.246Z,1015.4
2023-05-13T21:18:22.288Z,1015.3
2023-05-13T21:24:28.196Z,1015.2
2023-05-13T21:30:34.031Z,1015.2
2023-05-13T21:36:39.523Z,1015.2
2023-05-13T21:42:45.931Z,1015.2
2023-05-13T21:48:51.998Z,1015.2
2023-05-13T21:54:57.758Z,1015.2
2023-05-13T22:01:03.703Z,1015.1
2023-05-13T22:07:09.475Z,1015.1
2023-05-13T22:13:15.605Z,1015
2023-05-13T22:19:21.657Z,1015
2023-05-13T22:25:27.800Z,1015.1
2023-05-13T22:31:33.047Z,1015
2023-05-13T22:37:38.743Z,1015
2023-05-13T22:43:44.945Z,1015.1
2023-05-13T22:49:50.926Z,1015.1
2023-05-13T22:55:56.573Z,1015.1
2023-05-13T23:02:02.331Z,1015.1
2023-05-13T23:08:08.033Z,1015
2023-05-13T23:14:14.059Z,1014.9
2023-05-13T23:20:18.842Z,1014.8
2023-05-13T23:26:24.092Z,1014.8
2023-05-13T23:32:29.723Z,1014.7
2023-05-13T23:38:35.280Z,1014.7
2023-05-13T23:44:40.647Z,1014.7
2023-05-13T23:50:45.666Z,1014.6
2023-05-13T23:56:50.246Z,1014.7
